SAAC/COC METAR and TAF weather

Enter ICAO airport designator
Station Type Date Time Source
SAAC METAR 2019/08/10 13:25 UTC NOAA

SAAC 101325Z 23004KT 8000 FEW005 10/06 Q1023


Station Type Date Time Source
SAAC Decoded METAR 2019/08/10 13:25 UTC NOAA

Concordia Aerodrome, Argentina (SAAC) 31-18S 058-01W 38M
Aug 10, 2019 - 09:25 AM EDT / 2019.08.10 1325 UTC
Wind: from the SW (230 degrees) at 5 MPH (4 KT):0
Visibility: 4 mile(s):0
Sky conditions: mostly clear
Temperature: 50 F (10 C)
Dew Point: 42 F (6 C)
Relative Humidity: 76%
Pressure (altimeter): 30.21 in. Hg (1023 hPa)
ob: SAAC 101325Z 23004KT 8000 FEW005 10/06 Q1023
cycle: 13

Station Type Date Time Source
SAAC TAF UTC NOAA

Error!

Example: see airport list